Time;durP1;ratioP1;P1;durP2;ratioP2;P2;SDS_P1;SDS_P2;PMS_P1;PMS_P2;Temp;Humidity;BMP_temperature;BMP_pressure;BME280_temperature;BME280_humidity;BME280_pressure;Samples;Min_cycle;Max_cycle;Signal;HPM_P1;HPM_P2
2022/05/01 00:00:12;;;;;;;13.20;8.05;;;8.20;99.90;;;;;;5114706;28;20047;-77
2022/05/01 00:02:37;;;;;;;13.25;7.78;;;8.20;99.90;;;;;;5113442;28;20044;-77
2022/05/01 00:05:03;;;;;;;16.15;7.40;;;8.20;99.90;;;;;;5114698;28;20091;-77
2022/05/01 00:07:29;;;;;;;12.75;7.80;;;8.20;99.90;;;;;;5114441;28;20047;-77
2022/05/01 00:09:54;;;;;;;13.63;7.50;;;8.20;99.90;;;;;;5114513;28;20044;-78
2022/05/01 00:12:21;;;;;;;13.88;8.20;;;8.10;99.90;;;;;;5114397;28;20173;-77
2022/05/01 00:14:47;;;;;;;13.60;8.07;;;8.10;99.90;;;;;;5114478;28;20083;-77
2022/05/01 00:17:12;;;;;;;11.07;7.25;;;8.10;99.90;;;;;;5114499;28;20039;-77
2022/05/01 00:19:38;;;;;;;13.63;7.43;;;8.00;99.90;;;;;;5114527;28;20048;-78
2022/05/01 00:22:03;;;;;;;15.32;7.88;;;8.10;99.90;;;;;;5114501;28;20053;-77
2022/05/01 00:24:29;;;;;;;13.00;7.97;;;8.10;99.90;;;;;;5114358;28;20047;-77
2022/05/01 00:26:55;;;;;;;15.55;7.57;;;8.10;99.90;;;;;;5114188;28;20039;-77
2022/05/01 00:29:21;;;;;;;13.00;7.65;;;8.00;99.90;;;;;;5114424;28;20070;-78
2022/05/01 00:31:46;;;;;;;12.00;7.55;;;8.10;99.90;;;;;;5114417;28;20118;-77
2022/05/01 00:36:56;;;;;;;11.80;7.07;;;8.00;99.90;;;;;;5114267;28;20075;-77
2022/05/01 00:39:21;;;;;;;12.43;7.53;;;8.00;99.90;;;;;;5117809;28;20043;-77
2022/05/01 00:41:47;;;;;;;14.40;7.75;;;8.00;99.90;;;;;;5118425;28;20055;-77
2022/05/01 00:44:17;;;;;;;10.63;7.00;;;8.00;99.90;;;;;;5118281;28;20043;-77
2022/05/01 00:46:48;;;;;;;9.10;6.90;;;8.00;99.90;;;;;;5118179;28;20071;-77
2022/05/01 00:49:19;;;;;;;12.77;7.47;;;8.00;99.90;;;;;;5118297;28;20043;-76
2022/05/01 00:51:46;;;;;;;12.32;7.15;;;8.00;99.90;;;;;;5118236;28;20044;-77
2022/05/01 00:54:14;;;;;;;12.27;6.68;;;8.00;99.90;;;;;;5116895;28;20089;-77
2022/05/01 00:56:43;;;;;;;14.65;7.78;;;8.00;99.90;;;;;;5118067;28;20050;-77
2022/05/01 00:59:09;;;;;;;13.55;7.57;;;8.00;99.90;;;;;;5117659;28;20571;-76
2022/05/01 01:01:35;;;;;;;12.17;7.43;;;8.00;99.90;;;;;;5118397;28;20044;-77
2022/05/01 01:04:01;;;;;;;13.37;8.00;;;8.00;99.90;;;;;;5117919;28;20085;-77
2022/05/01 01:06:26;;;;;;;12.63;7.07;;;8.00;99.90;;;;;;5117771;28;20440;-77
2022/05/01 01:08:52;;;;;;;14.73;7.97;;;8.00;99.90;;;;;;5117863;28;20039;-77
2022/05/01 01:11:18;;;;;;;13.40;7.82;;;8.00;99.90;;;;;;5118178;28;20044;-76
2022/05/01 01:13:47;;;;;;;12.07;7.68;;;8.00;99.90;;;;;;5117720;28;20487;-76
2022/05/01 01:16:13;;;;;;;12.27;7.70;;;8.00;99.90;;;;;;5117614;28;20502;-76
2022/05/01 01:18:39;;;;;;;14.00;7.97;;;8.00;99.90;;;;;;5117477;28;20048;-77
2022/05/01 01:21:10;;;;;;;11.57;7.93;;;8.00;99.90;;;;;;5117580;28;20050;-77
2022/05/01 01:23:39;;;;;;;13.63;8.35;;;7.90;99.90;;;;;;5117481;28;20050;-76
2022/05/01 01:26:06;;;;;;;13.00;7.90;;;7.90;99.90;;;;;;5117540;28;20043;-77
2022/05/01 01:28:36;;;;;;;14.82;8.60;;;8.00;99.90;;;;;;5117529;28;20039;-76
2022/05/01 01:33:53;;;;;;;15.73;8.43;;;8.00;99.90;;;;;;5116707;28;20438;-77
2022/05/01 01:36:24;;;;;;;12.80;7.45;;;7.90;99.90;;;;;;5117830;28;20043;-77
2022/05/01 01:38:50;;;;;;;15.00;8.25;;;8.00;99.90;;;;;;5117359;27;20090;-77
2022/05/01 01:41:22;;;;;;;13.07;8.95;;;8.00;99.90;;;;;;5117294;28;20079;-77
2022/05/01 01:43:48;;;;;;;10.60;7.82;;;7.90;99.90;;;;;;5117320;28;20400;-77
2022/05/01 01:46:14;;;;;;;15.00;8.30;;;7.90;99.90;;;;;;5117262;28;20043;-77
2022/05/01 01:48:40;;;;;;;14.93;8.60;;;7.90;99.90;;;;;;5117000;28;20043;-78
2022/05/01 01:51:06;;;;;;;12.15;7.68;;;7.90;99.90;;;;;;5116469;28;20048;-77
2022/05/01 01:53:34;;;;;;;11.35;7.85;;;7.90;99.90;;;;;;5117455;28;20056;-77
2022/05/01 01:56:00;;;;;;;13.82;8.40;;;7.90;99.90;;;;;;5117095;28;20044;-76
2022/05/01 01:58:27;;;;;;;14.87;8.30;;;7.90;99.90;;;;;;5116955;28;20168;-77
2022/05/01 02:00:53;;;;;;;12.75;8.80;;;7.90;99.90;;;;;;5116978;28;20075;-75
2022/05/01 02:03:19;;;;;;;14.18;8.10;;;7.90;99.90;;;;;;5116853;28;20078;-76
2022/05/01 02:05:46;;;;;;;12.75;8.55;;;7.80;99.90;;;;;;5116857;28;20398;-78
2022/05/01 02:08:13;;;;;;;19.58;9.48;;;7.80;99.90;;;;;;5116763;28;20085;-77
2022/05/01 02:10:39;;;;;;;14.38;9.20;;;7.70;99.90;;;;;;5116743;28;20047;-77
2022/05/01 02:13:05;;;;;;;16.17;8.70;;;7.70;99.90;;;;;;5116574;28;20061;-76
2022/05/01 02:15:31;;;;;;;14.60;8.93;;;7.70;99.90;;;;;;5116556;28;20050;-76
2022/05/01 02:18:01;;;;;;;13.07;8.85;;;7.70;99.90;;;;;;5116591;28;20047;-77
2022/05/01 02:20:28;;;;;;;13.25;8.73;;;7.70;99.90;;;;;;5116406;28;20051;-76
2022/05/01 02:22:54;;;;;;;14.45;9.23;;;7.70;99.90;;;;;;5116575;28;20104;-77
2022/05/01 02:25:23;;;;;;;14.07;9.50;;;7.70;99.90;;;;;;5116521;28;20044;-78
2022/05/01 02:27:49;;;;;;;14.70;9.15;;;7.70;99.90;;;;;;5116250;28;20411;-76
2022/05/01 02:30:15;;;;;;;16.67;9.55;;;7.80;99.90;;;;;;5116347;28;20047;-76
2022/05/01 02:32:41;;;;;;;14.32;9.38;;;7.70;99.90;;;;;;5116244;28;20039;-76
2022/05/01 02:35:08;;;;;;;13.80;8.38;;;7.70;99.90;;;;;;5116634;28;20498;-76
2022/05/01 02:37:34;;;;;;;;;;;7.80;99.90;;;;;;5116739;28;20039;-76
2022/05/01 02:39:59;;;;;;;13.02;9.15;;;7.80;99.90;;;;;;5116176;28;19927;-76
2022/05/01 02:42:25;;;;;;;15.30;9.43;;;7.80;99.90;;;;;;5116068;28;20043;-76
2022/05/01 02:44:50;;;;;;;12.93;8.70;;;7.80;99.90;;;;;;5115984;28;20046;-76
2022/05/01 02:47:16;;;;;;;14.32;9.40;;;7.70;99.90;;;;;;5115982;28;20031;-76
2022/05/01 02:49:42;;;;;;;13.38;8.65;;;7.70;99.90;;;;;;5116335;28;20122;-77
2022/05/01 02:52:09;;;;;;;16.02;9.10;;;7.70;99.90;;;;;;5116156;28;20043;-78
2022/05/01 02:54:34;;;;;;;17.77;9.83;;;7.70;99.90;;;;;;5115819;28;20126;-76
2022/05/01 02:57:00;;;;;;;17.88;8.50;;;7.70;99.90;;;;;;5115712;28;20312;-76
2022/05/01 02:59:26;;;;;;;17.05;8.95;;;7.70;99.90;;;;;;5115775;27;20085;-76
2022/05/01 03:01:52;;;;;;;13.00;8.25;;;7.70;99.90;;;;;;5115622;28;20472;-77
2022/05/01 03:04:17;;;;;;;13.60;9.18;;;7.70;99.90;;;;;;5114580;28;20039;-76
2022/05/01 03:06:43;;;;;;;17.02;9.52;;;7.70;99.90;;;;;;5115572;28;20043;-76
2022/05/01 03:09:09;;;;;;;17.20;9.43;;;7.70;99.90;;;;;;5115751;28;20467;-76
2022/05/01 03:11:36;;;;;;;14.57;8.75;;;7.70;99.90;;;;;;5115436;28;20046;-76
2022/05/01 03:14:02;;;;;;;13.15;8.18;;;7.70;99.90;;;;;;5115792;28;20055;-77
2022/05/01 03:16:29;;;;;;;16.00;10.10;;;7.60;99.90;;;;;;5115491;28;20126;-76
2022/05/01 03:24:23;;;;;;;14.60;8.48;;;7.60;99.90;;;;;;5115633;28;20043;-76
2022/05/01 03:26:48;;;;;;;13.63;8.90;;;7.60;99.90;;;;;;5113910;28;20468;-77
2022/05/01 03:29:17;;;;;;;15.85;8.75;;;7.60;99.90;;;;;;5115278;28;20040;-77
2022/05/01 03:31:45;;;;;;;13.10;8.75;;;7.60;99.90;;;;;;5115011;28;20513;-76
2022/05/01 03:34:11;;;;;;;14.68;8.65;;;7.60;99.90;;;;;;5115150;28;20058;-77
2022/05/01 03:36:36;;;;;;;19.60;9.82;;;7.70;99.90;;;;;;5114625;28;20044;-77
2022/05/01 03:39:05;;;;;;;16.02;9.43;;;7.70;99.90;;;;;;5114980;28;20126;-76
2022/05/01 03:41:31;;;;;;;12.98;8.95;;;7.60;99.90;;;;;;5115069;28;20513;-76
2022/05/01 03:43:56;;;;;;;15.87;9.30;;;7.60;99.90;;;;;;5115128;28;20135;-76
2022/05/01 03:46:23;;;;;;;16.33;9.38;;;7.70;99.90;;;;;;5114716;28;20093;-76
2022/05/01 03:48:52;;;;;;;14.25;9.25;;;7.60;99.90;;;;;;5114763;28;20058;-76
2022/05/01 03:51:18;;;;;;;13.75;9.13;;;7.70;99.90;;;;;;5114730;28;20113;-77
2022/05/01 03:53:47;;;;;;;17.52;10.43;;;7.70;99.90;;;;;;5114758;28;20051;-77
2022/05/01 03:56:13;;;;;;;15.15;9.55;;;7.60;99.90;;;;;;5114836;28;20075;-78
2022/05/01 03:58:38;;;;;;;14.38;8.85;;;7.60;99.90;;;;;;5114723;28;20128;-78
2022/05/01 04:01:04;;;;;;;14.73;9.15;;;7.60;99.90;;;;;;5114914;28;20043;-76
2022/05/01 04:03:30;;;;;;;13.95;9.35;;;7.60;99.90;;;;;;5114530;28;20054;-77
2022/05/01 04:05:56;;;;;;;17.10;9.80;;;7.60;99.90;;;;;;5114586;28;20046;-77
2022/05/01 04:08:22;;;;;;;18.70;9.82;;;7.60;99.90;;;;;;5114349;28;20487;-78
2022/05/01 04:10:48;;;;;;;15.07;9.15;;;7.60;99.90;;;;;;5114801;28;20043;-76
2022/05/01 04:13:14;;;;;;;18.90;10.45;;;7.60;99.90;;;;;;5113880;28;20055;-76
2022/05/01 04:15:41;;;;;;;14.20;8.97;;;7.60;99.90;;;;;;5113970;28;20054;-77
2022/05/01 04:18:08;;;;;;;14.40;9.70;;;7.60;99.90;;;;;;5114358;28;20079;-76
2022/05/01 04:20:37;;;;;;;19.35;10.50;;;7.60;99.90;;;;;;5114235;28;20058;-76
2022/05/01 04:23:04;;;;;;;15.68;10.40;;;7.60;99.90;;;;;;5114384;28;20104;-78
2022/05/01 04:25:30;;;;;;;18.00;9.85;;;7.60;99.90;;;;;;5114289;28;20044;-77
2022/05/01 04:27:58;;;;;;;17.08;10.38;;;7.60;99.90;;;;;;5114626;28;20040;-77
2022/05/01 04:30:26;;;;;;;15.70;10.48;;;7.50;99.90;;;;;;5114163;28;20048;-77
2022/05/01 04:33:00;;;;;;;17.58;9.85;;;7.60;99.90;;;;;;5114147;28;20055;-77
2022/05/01 04:35:31;;;;;;;17.13;10.25;;;7.60;99.90;;;;;;5113982;28;20043;-78
2022/05/01 04:38:17;;;;;;;17.38;10.45;;;7.60;99.90;;;;;;5114362;28;20039;-78
2022/05/01 04:40:49;;;;;;;22.48;10.55;;;7.60;99.90;;;;;;5114056;28;20104;-78
2022/05/01 04:43:19;;;;;;;17.73;10.70;;;7.60;99.90;;;;;;5114128;28;20040;-78
2022/05/01 04:45:56;;;;;;;16.90;10.85;;;7.60;99.90;;;;;;5114080;28;20048;-78
2022/05/01 04:48:23;;;;;;;15.73;10.03;;;7.60;99.90;;;;;;5114171;28;20035;-77
2022/05/01 04:50:49;;;;;;;17.63;10.25;;;7.60;99.90;;;;;;5114107;28;20312;-78
2022/05/01 04:53:17;;;;;;;15.23;9.87;;;7.60;99.90;;;;;;5114030;28;20602;-77
2022/05/01 04:55:44;;;;;;;16.35;10.70;;;7.70;99.90;;;;;;5114219;28;20360;-77
2022/05/01 04:58:11;;;;;;;19.38;10.65;;;7.70;99.90;;;;;;5114036;28;20044;-78
2022/05/01 05:00:38;;;;;;;15.07;9.68;;;7.70;99.90;;;;;;5114477;28;20122;-77
2022/05/01 05:03:04;;;;;;;16.27;10.30;;;7.70;99.90;;;;;;5114087;28;20048;-77
2022/05/01 05:05:34;;;;;;;18.40;9.82;;;7.70;99.90;;;;;;5114154;28;20483;-77
2022/05/01 05:09:53;;;;;;;16.52;10.23;;;7.80;99.90;;;;;;5114307;28;20032;-77
2022/05/01 05:10:47;;;;;;;19.10;11.07;;;7.80;99.90;;;;;;5114135;28;20449;-77
2022/05/01 05:13:22;;;;;;;19.83;10.35;;;7.80;99.90;;;;;;5113763;28;20059;-78
2022/05/01 05:15:48;;;;;;;17.08;11.25;;;7.80;99.90;;;;;;5125144;28;20044;-77
2022/05/01 05:18:14;;;;;;;19.95;11.43;;;7.80;99.90;;;;;;5130872;28;20074;-76
2022/05/01 05:20:40;;;;;;;14.63;9.65;;;7.80;99.90;;;;;;5129079;28;20052;-76
2022/05/01 05:23:06;;;;;;;20.98;11.68;;;7.80;99.90;;;;;;5129776;28;20040;-76
2022/05/01 05:25:32;;;;;;;20.02;11.55;;;7.90;99.90;;;;;;5130190;28;20043;-76
2022/05/01 05:27:57;;;;;;;22.17;11.60;;;7.90;99.90;;;;;;5129063;28;20123;-76
2022/05/01 05:30:23;;;;;;;16.40;11.10;;;7.90;99.90;;;;;;5130920;28;20173;-76
2022/05/01 05:32:49;;;;;;;16.98;10.57;;;8.00;99.90;;;;;;5127940;28;20043;-76
2022/05/01 05:35:15;;;;;;;20.20;11.32;;;8.00;99.90;;;;;;5128561;28;20044;-74
2022/05/01 05:37:40;;;;;;;18.42;10.82;;;8.00;99.90;;;;;;5130494;28;20040;-77
2022/05/01 05:40:06;;;;;;;19.95;10.98;;;8.00;99.90;;;;;;5127096;28;20040;-76
2022/05/01 05:42:32;;;;;;;16.50;10.67;;;8.00;99.90;;;;;;5117799;28;20126;-77
2022/05/01 05:44:59;;;;;;;17.45;10.88;;;8.00;99.90;;;;;;5117626;28;20075;-76
2022/05/01 05:47:24;;;;;;;;;;;8.00;99.90;;;;;;5117895;28;20368;-76
2022/05/01 05:49:50;;;;;;;20.63;9.73;;;8.10;99.90;;;;;;5117679;28;19920;-77
2022/05/01 05:52:16;;;;;;;16.17;10.68;;;8.10;99.90;;;;;;5117288;28;20039;-78
2022/05/01 05:54:41;;;;;;;15.52;10.02;;;8.10;99.90;;;;;;5117269;28;20047;-77
2022/05/01 05:57:07;;;;;;;18.45;10.52;;;8.20;99.90;;;;;;5116346;28;20088;-77
2022/05/01 05:59:33;;;;;;;16.98;9.93;;;8.10;99.90;;;;;;5117372;28;20143;-79
2022/05/01 06:01:59;;;;;;;17.27;10.05;;;8.20;99.90;;;;;;5116047;28;20101;-78
2022/05/01 06:04:24;;;;;;;14.23;9.52;;;8.20;99.90;;;;;;5116803;28;20117;-78
2022/05/01 06:06:50;;;;;;;18.60;11.27;;;8.20;99.90;;;;;;5116873;28;20128;-77
2022/05/01 06:09:15;;;;;;;16.50;9.90;;;8.20;99.90;;;;;;5116880;28;20044;-78
2022/05/01 06:11:41;;;;;;;16.13;9.77;;;8.20;99.90;;;;;;5117146;28;20047;-77
2022/05/01 06:14:07;;;;;;;15.73;9.88;;;8.30;99.90;;;;;;5098622;28;20499;-77
2022/05/01 06:16:32;;;;;;;15.90;10.18;;;8.30;99.90;;;;;;5116562;28;20103;-76
2022/05/01 06:18:59;;;;;;;15.05;10.02;;;8.30;99.90;;;;;;5115372;28;20054;-77
2022/05/01 06:21:25;;;;;;;15.52;9.57;;;8.30;99.90;;;;;;5116614;28;20096;-77
2022/05/01 06:23:51;;;;;;;15.50;9.37;;;8.30;99.90;;;;;;5116128;28;20054;-77
2022/05/01 06:26:17;;;;;;;18.30;10.10;;;8.40;99.90;;;;;;5116470;28;20127;-77
2022/05/01 06:28:42;;;;;;;16.48;9.77;;;8.40;99.90;;;;;;5116261;28;20047;-77
2022/05/01 06:31:08;;;;;;;13.75;9.35;;;8.40;99.90;;;;;;5116311;28;20047;-77
2022/05/01 06:33:35;;;;;;;15.07;9.15;;;8.40;99.90;;;;;;5116623;28;20048;-77
2022/05/01 06:36:01;;;;;;;;;;;8.50;99.90;;;;;;5116283;28;20051;-77
2022/05/01 06:38:27;;;;;;;14.75;9.40;;;8.50;99.90;;;;;;5116100;28;19920;-77
2022/05/01 06:40:53;;;;;;;17.15;9.45;;;8.50;99.90;;;;;;5116654;28;20065;-77
2022/05/01 06:43:19;;;;;;;15.25;9.18;;;8.50;99.90;;;;;;5116250;28;20122;-74
2022/05/01 06:45:46;;;;;;;15.55;8.20;;;8.50;99.90;;;;;;5116319;28;20432;-77
2022/05/01 06:48:12;;;;;;;;;;;8.60;99.90;;;;;;5115614;28;20399;-77
2022/05/01 06:50:38;;;;;;;14.27;8.68;;;8.60;99.90;;;;;;5115935;28;19926;-78
2022/05/01 06:53:05;;;;;;;15.40;9.48;;;8.60;99.90;;;;;;5115967;28;20458;-77
2022/05/01 06:55:31;;;;;;;13.00;8.40;;;8.70;99.90;;;;;;5115736;28;20097;-77
2022/05/01 06:57:57;;;;;;;13.53;8.73;;;8.70;99.90;;;;;;5115213;28;20043;-77
2022/05/01 07:00:23;;;;;;;14.93;9.05;;;8.80;99.90;;;;;;5115756;28;20139;-78
2022/05/01 07:02:51;;;;;;;14.77;9.07;;;8.90;99.90;;;;;;5115161;28;20044;-77
2022/05/01 07:05:18;;;;;;;16.45;9.30;;;8.90;99.90;;;;;;5115557;28;20502;-78
2022/05/01 07:07:44;;;;;;;13.73;9.38;;;9.00;99.90;;;;;;5115461;28;20044;-77
2022/05/01 07:10:11;;;;;;;13.38;8.88;;;9.10;99.90;;;;;;5116008;28;20051;-79
2022/05/01 07:12:37;;;;;;;12.95;8.57;;;9.20;99.90;;;;;;5115238;28;20055;-77
2022/05/01 07:15:03;;;;;;;12.23;7.50;;;9.30;99.90;;;;;;5115724;28;20097;-76
2022/05/01 07:17:28;;;;;;;11.25;7.07;;;9.30;99.90;;;;;;5115410;28;20039;-77
2022/05/01 07:19:54;;;;;;;10.90;7.72;;;9.40;99.90;;;;;;5115501;28;20043;-77
2022/05/01 07:22:19;;;;;;;12.90;7.95;;;9.50;99.90;;;;;;5115298;28;20556;-76
2022/05/01 07:24:45;;;;;;;13.20;8.63;;;9.50;99.90;;;;;;5115335;28;20055;-77
2022/05/01 07:27:11;;;;;;;13.18;8.20;;;9.60;99.90;;;;;;5114742;28;20134;-77
2022/05/01 07:29:37;;;;;;;13.43;8.27;;;9.70;99.90;;;;;;5114984;28;20048;-79
2022/05/01 07:32:03;;;;;;;13.50;8.38;;;9.70;99.90;;;;;;5114788;28;20052;-77
2022/05/01 07:34:29;;;;;;;12.77;8.27;;;9.70;99.90;;;;;;5114986;28;20044;-78
2022/05/01 07:36:54;;;;;;;12.45;8.23;;;9.80;99.90;;;;;;5115032;28;20513;-78
2022/05/01 07:39:20;;;;;;;12.80;8.20;;;9.80;99.90;;;;;;5080183;28;20478;-77
2022/05/01 07:41:45;;;;;;;11.38;7.70;;;9.90;99.90;;;;;;5114842;28;20130;-77
2022/05/01 07:44:11;;;;;;;10.82;7.97;;;10.00;99.90;;;;;;5114831;28;20039;-76
2022/05/01 07:46:41;;;;;;;13.88;8.65;;;10.10;99.90;;;;;;5114495;28;20426;-77
2022/05/01 07:49:08;;;;;;;11.88;8.38;;;10.20;99.90;;;;;;5114422;28;20437;-77
2022/05/01 07:51:33;;;;;;;13.80;9.15;;;10.20;99.90;;;;;;5114650;28;20399;-78
2022/05/01 07:53:59;;;;;;;12.57;8.82;;;10.30;99.90;;;;;;5115388;28;20039;-76
2022/05/01 07:56:25;;;;;;;13.18;8.57;;;10.30;99.90;;;;;;5114740;28;20043;-77
2022/05/01 07:58:52;;;;;;;17.63;9.73;;;10.30;99.90;;;;;;5114618;28;20039;-76
2022/05/01 08:01:17;;;;;;;10.30;8.10;;;10.30;99.90;;;;;;5114757;28;20122;-78
2022/05/01 08:06:27;;;;;;;14.75;8.85;;;10.50;99.90;;;;;;5114383;28;20051;-76
2022/05/01 08:08:53;;;;;;;13.60;8.98;;;10.60;99.90;;;;;;5114476;28;20048;-77
2022/05/01 08:11:18;;;;;;;12.10;8.48;;;10.70;99.90;;;;;;5114373;28;20044;-76
2022/05/01 08:13:44;;;;;;;10.38;7.22;;;10.70;99.90;;;;;;5114421;28;20377;-77
2022/05/01 08:16:09;;;;;;;13.13;8.20;;;10.90;99.90;;;;;;5114337;28;20055;-77
2022/05/01 08:21:19;;;;;;;10.95;8.40;;;11.00;99.90;;;;;;5114422;28;20047;-76
2022/05/01 08:23:45;;;;;;;11.00;7.65;;;11.10;99.90;;;;;;5114299;28;20097;-76
2022/05/01 08:26:11;;;;;;;13.07;7.82;;;11.30;99.90;;;;;;5114361;28;20079;-78
2022/05/01 08:28:39;;;;;;;12.75;8.02;;;11.30;99.90;;;;;;5114306;28;20039;-77
2022/05/01 08:31:06;;;;;;;8.25;6.05;;;11.50;99.90;;;;;;5114134;28;20096;-76
2022/05/01 08:33:32;;;;;;;;;;;11.60;99.90;;;;;;5114482;28;20051;-77
2022/05/01 08:35:58;;;;;;;8.95;5.82;;;11.70;99.90;;;;;;5114097;28;19942;-77
2022/05/01 08:38:24;;;;;;;9.50;6.20;;;11.70;99.90;;;;;;5114129;28;20494;-78
2022/05/01 08:40:51;;;;;;;9.55;6.70;;;11.90;99.90;;;;;;5114154;28;20132;-77
2022/05/01 08:43:21;;;;;;;8.63;6.68;;;11.90;99.90;;;;;;5114075;28;20051;-77
2022/05/01 08:45:53;;;;;;;9.68;6.85;;;12.00;99.90;;;;;;5114071;28;20047;-76
2022/05/01 08:48:29;;;;;;;9.50;6.40;;;12.10;99.90;;;;;;5113941;28;20087;-76
2022/05/01 08:50:55;;;;;;;8.05;5.75;;;12.20;99.90;;;;;;5114094;28;20047;-76
2022/05/01 08:53:22;;;;;;;8.52;5.38;;;12.10;99.90;;;;;;5114080;28;20043;-77
2022/05/01 08:55:49;;;;;;;6.85;4.70;;;12.20;99.90;;;;;;5114015;28;20040;-76
2022/05/01 08:58:15;;;;;;;8.13;5.63;;;12.30;99.90;;;;;;5114057;28;20047;-77
2022/05/01 09:00:41;;;;;;;7.97;5.53;;;12.40;99.90;;;;;;5118070;28;20049;-78
2022/05/01 09:03:07;;;;;;;9.10;5.93;;;12.50;99.90;;;;;;5118286;28;20449;-77
2022/05/01 09:05:33;;;;;;;7.90;5.38;;;12.70;99.90;;;;;;5118000;28;20281;-77
2022/05/01 09:07:58;;;;;;;9.43;5.63;;;12.80;99.90;;;;;;5118081;28;20065;-76
2022/05/01 09:10:31;;;;;;;10.82;5.53;;;13.00;99.90;;;;;;5117890;28;20221;-76
2022/05/01 09:12:57;;;;;;;8.38;5.50;;;13.20;99.90;;;;;;5117713;28;20056;-77
2022/05/01 09:15:35;;;;;;;8.30;5.97;;;13.20;99.90;;;;;;5117623;28;20051;-77
2022/05/01 09:18:03;;;;;;;7.07;5.00;;;13.30;99.90;;;;;;5118095;28;20126;-76
2022/05/01 09:20:29;;;;;;;7.07;4.90;;;13.40;99.90;;;;;;5118063;28;20106;-76
2022/05/01 09:22:57;;;;;;;9.37;6.70;;;13.30;99.90;;;;;;5117805;28;20043;-76
2022/05/01 09:25:24;;;;;;;6.95;5.07;;;13.30;99.90;;;;;;5117370;28;20513;-76
2022/05/01 09:27:52;;;;;;;9.23;5.40;;;13.30;99.90;;;;;;5117377;27;20088;-76
2022/05/01 09:30:22;;;;;;;9.48;5.82;;;13.30;99.90;;;;;;5117464;27;20046;-77
2022/05/01 09:32:49;;;;;;;6.90;5.30;;;13.10;99.90;;;;;;5117371;28;20475;-77
2022/05/01 09:35:35;;;;;;;10.27;5.30;;;13.00;99.90;;;;;;5117291;28;20476;-78
2022/05/01 09:38:16;;;;;;;8.20;5.53;;;13.00;99.90;;;;;;5116348;28;20065;-78
2022/05/01 09:40:47;;;;;;;7.35;4.75;;;12.90;99.90;;;;;;5117258;28;20059;-77
2022/05/01 09:43:34;;;;;;;6.82;4.70;;;13.00;99.90;;;;;;5117184;28;20043;-77
2022/05/01 09:46:15;;;;;;;6.87;4.70;;;13.10;99.90;;;;;;5117083;28;20060;-76
2022/05/01 09:49:02;;;;;;;9.23;4.80;;;13.10;99.90;;;;;;5116948;28;20043;-76
2022/05/01 09:51:35;;;;;;;6.45;4.18;;;13.00;99.90;;;;;;5116413;28;20047;-76
2022/05/01 09:54:03;;;;;;;6.28;3.88;;;13.10;99.90;;;;;;5117012;28;20088;-77
2022/05/01 09:56:46;;;;;;;6.43;4.25;;;13.20;99.90;;;;;;5117106;28;20073;-77
2022/05/01 09:59:12;;;;;;;6.30;4.80;;;13.20;99.90;;;;;;5117010;27;20051;-77
2022/05/01 10:01:38;;;;;;;8.05;5.53;;;13.20;99.90;;;;;;5115681;28;20040;-77
2022/05/01 10:04:04;;;;;;;7.68;5.22;;;13.20;99.90;;;;;;5116770;28;20475;-76
2022/05/01 10:06:31;;;;;;;7.50;4.63;;;13.20;99.90;;;;;;5116764;28;20043;-77
2022/05/01 10:08:57;;;;;;;9.18;4.70;;;13.40;99.90;;;;;;5116502;28;20100;-77
2022/05/01 10:11:24;;;;;;;6.50;4.47;;;13.70;99.90;;;;;;5115942;28;20047;-77
2022/05/01 10:13:51;;;;;;;6.10;4.40;;;13.90;99.90;;;;;;5116664;28;20051;-78
2022/05/01 10:16:17;;;;;;;8.30;4.20;;;14.20;99.90;;;;;;5116724;28;20052;-78
2022/05/01 10:18:45;;;;;;;6.73;3.90;;;14.20;99.90;;;;;;5116745;28;20038;-78
2022/05/01 10:21:11;;;;;;;4.68;3.78;;;14.30;99.90;;;;;;5116679;28;20516;-77
2022/05/01 10:23:39;;;;;;;6.80;3.85;;;14.30;99.90;;;;;;5116589;28;20051;-77
2022/05/01 10:26:23;;;;;;;7.57;4.97;;;14.60;99.90;;;;;;5115283;28;20043;-78
2022/05/01 10:28:57;;;;;;;11.27;3.95;;;14.50;99.90;;;;;;5116605;28;20044;-77
2022/05/01 10:34:53;;;;;;;7.25;4.20;;;14.60;99.90;;;;;;5116262;28;20047;-76
2022/05/01 10:37:42;;;;;;;7.05;4.95;;;14.40;99.90;;;;;;5115973;28;20040;-77
2022/05/01 10:40:08;;;;;;;7.78;4.28;;;14.40;99.90;;;;;;5117899;28;20135;-76
2022/05/01 10:42:38;;;;;;;7.40;4.73;;;14.40;99.90;;;;;;5116453;28;20079;-76
2022/05/01 10:45:24;;;;;;;6.22;4.15;;;14.40;99.90;;;;;;5116038;28;20096;-76
2022/05/01 10:47:52;;;;;;;6.95;4.57;;;14.40;99.90;;;;;;5101129;27;20511;-77
2022/05/01 10:50:21;;;;;;;5.78;4.22;;;14.40;99.90;;;;;;5096360;28;20440;-76
2022/05/01 10:53:12;;;;;;;6.80;4.68;;;14.50;99.90;;;;;;5114537;28;20036;-76
2022/05/01 10:55:52;;;;;;;8.02;4.65;;;14.40;99.90;;;;;;5095234;28;20510;-74
2022/05/01 10:58:22;;;;;;;5.93;4.20;;;14.40;99.90;;;;;;5096970;28;20044;-74
2022/05/01 11:00:50;;;;;;;9.85;4.55;;;14.50;99.90;;;;;;5111786;28;20086;-73
2022/05/01 11:03:30;;;;;;;6.65;4.63;;;14.60;99.90;;;;;;5109961;28;20067;-75
2022/05/01 11:06:04;;;;;;;8.27;4.60;;;14.50;99.50;;;;;;5107412;28;20115;-80
2022/05/01 11:08:36;;;;;;;7.63;4.45;;;14.60;99.90;;;;;;5105137;28;20040;-76
2022/05/01 11:11:07;;;;;;;5.47;3.92;;;14.60;98.80;;;;;;5095058;28;20052;-78
2022/05/01 11:13:38;;;;;;;7.60;3.95;;;14.60;99.40;;;;;;5095392;28;20052;-78
2022/05/01 11:16:05;;;;;;;6.90;4.43;;;14.60;99.40;;;;;;5095018;28;20090;-79
2022/05/01 11:18:40;;;;;;;7.93;3.92;;;14.90;99.90;;;;;;5094930;28;20123;-79
2022/05/01 11:21:24;;;;;;;4.57;3.72;;;15.20;98.40;;;;;;5094941;28;20587;-78
2022/05/01 11:24:00;;;;;;;6.50;3.55;;;15.10;96.70;;;;;;5094753;28;20055;-78
2022/05/01 11:26:28;;;;;;;4.65;3.17;;;15.20;98.10;;;;;;5094756;28;20126;-78
2022/05/01 11:29:13;;;;;;;5.55;3.00;;;15.40;98.50;;;;;;5094584;28;20055;-78
2022/05/01 11:31:39;;;;;;;5.97;3.20;;;15.70;97.80;;;;;;5094423;28;20464;-78
2022/05/01 11:34:16;;;;;;;8.07;3.60;;;15.90;97.00;;;;;;5094775;28;20050;-78
2022/05/01 11:37:01;;;;;;;4.80;3.45;;;16.00;94.80;;;;;;5094539;28;20141;-78
2022/05/01 11:39:46;;;;;;;6.63;3.45;;;16.00;94.40;;;;;;5094528;28;20050;-77
2022/05/01 11:42:26;;;;;;;5.07;2.90;;;15.80;94.70;;;;;;5094495;28;20079;-77
2022/05/01 11:44:54;;;;;;;5.28;3.08;;;15.80;96.20;;;;;;5094809;28;20400;-78
2022/05/01 11:47:20;;;;;;;4.47;2.83;;;15.90;94.80;;;;;;5094295;28;20043;-76
2022/05/01 11:49:46;;;;;;;4.03;2.65;;;15.50;95.30;;;;;;5094112;28;20044;-79
2022/05/01 11:52:13;;;;;;;7.10;3.10;;;15.50;95.90;;;;;;5094334;28;20047;-78
2022/05/01 11:54:50;;;;;;;5.05;2.85;;;15.50;94.30;;;;;;5094279;28;20278;-77
2022/05/01 12:03:00;;;;;;;4.47;3.25;;;15.90;92.70;;;;;;5094072;28;20476;-76
2022/05/01 12:05:28;;;;;;;8.63;3.10;;;15.80;91.40;;;;;;5093794;28;20058;-78
2022/05/01 12:07:55;;;;;;;3.97;2.80;;;15.50;90.60;;;;;;5094009;28;20528;-78
2022/05/01 12:10:21;;;;;;;4.22;2.50;;;15.50;92.60;;;;;;5094146;28;20044;-78
2022/05/01 12:12:46;;;;;;;3.87;2.50;;;15.60;93.30;;;;;;5093920;28;20097;-78
2022/05/01 12:15:12;;;;;;;4.60;2.15;;;15.70;90.90;;;;;;5094017;28;20062;-77
2022/05/01 12:17:42;;;;;;;3.23;2.20;;;15.90;91.40;;;;;;5094010;28;20435;-78
2022/05/01 12:20:08;;;;;;;3.15;2.22;;;16.00;90.00;;;;;;5094063;28;20112;-77
2022/05/01 12:22:37;;;;;;;5.07;2.28;;;16.20;92.00;;;;;;5093850;28;20085;-78
2022/05/01 12:25:10;;;;;;;3.72;2.20;;;16.40;91.40;;;;;;5094009;28;20047;-76
2022/05/01 12:27:40;;;;;;;3.17;2.20;;;16.70;90.80;;;;;;5093759;28;20450;-78
2022/05/01 12:30:07;;;;;;;3.78;2.40;;;16.40;88.00;;;;;;5094462;28;20052;-79
2022/05/01 12:32:33;;;;;;;3.95;2.30;;;16.40;89.90;;;;;;5093777;28;20107;-78
2022/05/01 12:35:00;;;;;;;5.22;2.00;;;16.20;88.70;;;;;;5099669;28;20051;-78
2022/05/01 12:37:32;;;;;;;;;;;16.30;89.00;;;;;;5101475;28;20076;-78
2022/05/01 12:40:09;;;;;;;3.47;2.00;;;16.40;90.30;;;;;;5100628;28;19927;-78
2022/05/01 12:45:39;;;;;;;3.10;2.30;;;16.20;88.50;;;;;;5100527;28;20056;-77
2022/05/01 12:48:10;;;;;;;5.57;2.30;;;16.40;86.60;;;;;;5100422;28;20040;-78
2022/05/01 12:50:39;;;;;;;3.42;2.40;;;16.60;90.20;;;;;;5100459;28;20040;-76
2022/05/01 12:53:25;;;;;;;3.60;1.90;;;16.80;89.50;;;;;;5100395;28;20040;-78
2022/05/01 12:55:51;;;;;;;2.97;2.25;;;16.80;82.70;;;;;;5100058;28;20052;-76
2022/05/01 12:58:33;;;;;;;3.10;2.07;;;16.90;85.90;;;;;;5099124;28;20104;-78
2022/05/01 13:01:00;;;;;;;4.25;2.45;;;17.00;86.40;;;;;;5100359;28;20449;-79
2022/05/01 13:03:36;;;;;;;4.22;2.42;;;16.90;83.90;;;;;;5100256;28;20047;-78
2022/05/01 13:06:07;;;;;;;4.57;2.65;;;16.80;85.50;;;;;;5100219;28;20047;-77
2022/05/01 13:08:51;;;;;;;5.32;2.60;;;16.60;86.10;;;;;;5100519;28;20039;-77
2022/05/01 13:11:28;;;;;;;5.53;2.47;;;16.40;87.20;;;;;;5100221;28;20430;-78
2022/05/01 13:13:58;;;;;;;4.18;2.30;;;16.40;88.00;;;;;;5099876;28;20449;-76
2022/05/01 13:16:29;;;;;;;10.25;2.40;;;16.30;89.20;;;;;;5099746;28;20483;-77
2022/05/01 13:18:57;;;;;;;3.33;2.25;;;16.30;88.60;;;;;;5099275;28;20176;-77